sensor_id;sensor_type;location;lat;lon;timestamp;temperature;humidity
17346;DHT22;8790;53.590;10.002;2023-07-28T00:01:33;16.90;99.90
17346;DHT22;8790;53.590;10.002;2023-07-28T00:04:06;16.90;99.90
17346;DHT22;8790;53.590;10.002;2023-07-28T00:06:40;16.90;99.90
17346;DHT22;8790;53.590;10.002;2023-07-28T00:09:11;16.90;99.90
17346;DHT22;8790;53.590;10.002;2023-07-28T00:11:44;16.90;99.90
17346;DHT22;8790;53.590;10.002;2023-07-28T00:14:16;16.90;99.90
17346;DHT22;8790;53.590;10.002;2023-07-28T00:16:48;16.90;99.90
17346;DHT22;8790;53.590;10.002;2023-07-28T00:19:20;16.90;99.90
17346;DHT22;8790;53.590;10.002;2023-07-28T00:21:52;16.90;99.90
17346;DHT22;8790;53.590;10.002;2023-07-28T00:24:24;16.90;99.90
17346;DHT22;8790;53.590;10.002;2023-07-28T00:26:57;16.90;99.90
17346;DHT22;8790;53.590;10.002;2023-07-28T00:29:28;16.90;99.90
17346;DHT22;8790;53.590;10.002;2023-07-28T00:32:00;16.90;99.90
17346;DHT22;8790;53.590;10.002;2023-07-28T00:34:32;16.90;99.90
17346;DHT22;8790;53.590;10.002;2023-07-28T00:37:04;16.90;99.90
17346;DHT22;8790;53.590;10.002;2023-07-28T00:39:35;16.90;99.90
17346;DHT22;8790;53.590;10.002;2023-07-28T00:42:08;16.90;99.90
17346;DHT22;8790;53.590;10.002;2023-07-28T00:44:40;16.90;99.90
17346;DHT22;8790;53.590;10.002;2023-07-28T00:47:12;16.90;99.90
17346;DHT22;8790;53.590;10.002;2023-07-28T00:49:44;16.90;99.90
17346;DHT22;8790;53.590;10.002;2023-07-28T00:52:16;16.90;99.90
17346;DHT22;8790;53.590;10.002;2023-07-28T00:54:48;16.90;99.90
17346;DHT22;8790;53.590;10.002;2023-07-28T00:57:21;16.90;99.90
17346;DHT22;8790;53.590;10.002;2023-07-28T00:59:53;16.90;99.90
17346;DHT22;8790;53.590;10.002;2023-07-28T01:02:25;16.90;99.90
17346;DHT22;8790;53.590;10.002;2023-07-28T01:04:57;16.90;99.90
17346;DHT22;8790;53.590;10.002;2023-07-28T01:07:36;16.90;99.90
17346;DHT22;8790;53.590;10.002;2023-07-28T01:10:12;16.90;99.90
17346;DHT22;8790;53.590;10.002;2023-07-28T01:12:45;16.90;99.90
17346;DHT22;8790;53.590;10.002;2023-07-28T01:15:17;17.00;99.90
17346;DHT22;8790;53.590;10.002;2023-07-28T01:17:50;17.00;99.90
17346;DHT22;8790;53.590;10.002;2023-07-28T01:20:23;17.00;99.90
17346;DHT22;8790;53.590;10.002;2023-07-28T01:23:07;17.00;99.90
17346;DHT22;8790;53.590;10.002;2023-07-28T01:25:49;16.90;99.90
17346;DHT22;8790;53.590;10.002;2023-07-28T01:28:22;16.90;99.90
17346;DHT22;8790;53.590;10.002;2023-07-28T01:30:54;16.90;99.90
17346;DHT22;8790;53.590;10.002;2023-07-28T01:33:26;16.90;99.90
17346;DHT22;8790;53.590;10.002;2023-07-28T01:35:57;16.90;99.90
17346;DHT22;8790;53.590;10.002;2023-07-28T01:38:31;16.90;99.90
17346;DHT22;8790;53.590;10.002;2023-07-28T01:41:03;17.00;99.90
17346;DHT22;8790;53.590;10.002;2023-07-28T01:43:36;16.90;99.90
17346;DHT22;8790;53.590;10.002;2023-07-28T01:46:08;16.90;99.90
17346;DHT22;8790;53.590;10.002;2023-07-28T01:48:39;16.90;99.90
17346;DHT22;8790;53.590;10.002;2023-07-28T01:51:11;16.90;99.90
17346;DHT22;8790;53.590;10.002;2023-07-28T01:53:43;16.90;99.90
17346;DHT22;8790;53.590;10.002;2023-07-28T01:56:15;16.90;99.90
17346;DHT22;8790;53.590;10.002;2023-07-28T01:58:48;16.90;99.90
17346;DHT22;8790;53.590;10.002;2023-07-28T02:01:20;16.90;99.90
17346;DHT22;8790;53.590;10.002;2023-07-28T02:03:52;17.00;99.90
17346;DHT22;8790;53.590;10.002;2023-07-28T02:06:23;16.90;99.90
17346;DHT22;8790;53.590;10.002;2023-07-28T02:08:55;17.00;99.90
17346;DHT22;8790;53.590;10.002;2023-07-28T02:11:27;17.00;99.90
17346;DHT22;8790;53.590;10.002;2023-07-28T02:14:00;17.00;99.90
17346;DHT22;8790;53.590;10.002;2023-07-28T02:16:32;17.00;99.90
17346;DHT22;8790;53.590;10.002;2023-07-28T02:19:04;17.00;99.90
17346;DHT22;8790;53.590;10.002;2023-07-28T02:21:36;17.00;99.90
17346;DHT22;8790;53.590;10.002;2023-07-28T02:24:07;16.90;99.90
17346;DHT22;8790;53.590;10.002;2023-07-28T02:26:39;17.00;99.90
17346;DHT22;8790;53.590;10.002;2023-07-28T02:29:12;16.90;99.90
17346;DHT22;8790;53.590;10.002;2023-07-28T02:31:44;16.90;99.90
17346;DHT22;8790;53.590;10.002;2023-07-28T02:34:16;16.90;99.90
17346;DHT22;8790;53.590;10.002;2023-07-28T02:36:47;17.00;99.90
17346;DHT22;8790;53.590;10.002;2023-07-28T02:39:19;17.00;99.90
17346;DHT22;8790;53.590;10.002;2023-07-28T02:41:51;17.00;99.90
17346;DHT22;8790;53.590;10.002;2023-07-28T02:44:25;17.00;99.90
17346;DHT22;8790;53.590;10.002;2023-07-28T02:46:56;17.00;99.90
17346;DHT22;8790;53.590;10.002;2023-07-28T02:49:28;17.00;99.90
17346;DHT22;8790;53.590;10.002;2023-07-28T02:52:00;17.00;99.90
17346;DHT22;8790;53.590;10.002;2023-07-28T02:54:33;17.00;99.90
17346;DHT22;8790;53.590;10.002;2023-07-28T02:57:05;17.00;99.90
17346;DHT22;8790;53.590;10.002;2023-07-28T02:59:38;17.00;99.90
17346;DHT22;8790;53.590;10.002;2023-07-28T03:02:11;17.00;99.90
17346;DHT22;8790;53.590;10.002;2023-07-28T03:04:42;17.00;99.90
17346;DHT22;8790;53.590;10.002;2023-07-28T03:07:20;17.00;99.90
17346;DHT22;8790;53.590;10.002;2023-07-28T03:09:58;17.00;99.90
17346;DHT22;8790;53.590;10.002;2023-07-28T03:12:30;17.00;99.90
17346;DHT22;8790;53.590;10.002;2023-07-28T03:15:05;17.00;99.90
17346;DHT22;8790;53.590;10.002;2023-07-28T03:17:36;16.90;99.90
17346;DHT22;8790;53.590;10.002;2023-07-28T03:20:09;17.00;99.90
17346;DHT22;8790;53.590;10.002;2023-07-28T03:22:41;17.00;99.90
17346;DHT22;8790;53.590;10.002;2023-07-28T03:25:13;16.90;99.90
17346;DHT22;8790;53.590;10.002;2023-07-28T03:27:45;16.90;99.90
17346;DHT22;8790;53.590;10.002;2023-07-28T03:30:18;16.90;99.90
17346;DHT22;8790;53.590;10.002;2023-07-28T03:32:50;17.00;99.90
17346;DHT22;8790;53.590;10.002;2023-07-28T03:35:22;17.00;99.90
17346;DHT22;8790;53.590;10.002;2023-07-28T03:38:03;16.90;99.90
17346;DHT22;8790;53.590;10.002;2023-07-28T03:40:35;16.90;99.90
17346;DHT22;8790;53.590;10.002;2023-07-28T03:43:08;16.80;99.90
17346;DHT22;8790;53.590;10.002;2023-07-28T03:45:41;16.80;99.90
17346;DHT22;8790;53.590;10.002;2023-07-28T03:48:12;16.80;99.90
17346;DHT22;8790;53.590;10.002;2023-07-28T03:50:44;16.90;99.90
17346;DHT22;8790;53.590;10.002;2023-07-28T03:53:16;16.90;99.90
17346;DHT22;8790;53.590;10.002;2023-07-28T03:55:47;16.90;99.90
17346;DHT22;8790;53.590;10.002;2023-07-28T03:58:19;16.80;99.90
17346;DHT22;8790;53.590;10.002;2023-07-28T04:00:53;16.90;99.90
17346;DHT22;8790;53.590;10.002;2023-07-28T04:03:25;16.90;99.90
17346;DHT22;8790;53.590;10.002;2023-07-28T04:05:56;16.90;99.90
17346;DHT22;8790;53.590;10.002;2023-07-28T04:08:28;16.90;99.90
17346;DHT22;8790;53.590;10.002;2023-07-28T04:11:00;17.00;99.90
17346;DHT22;8790;53.590;10.002;2023-07-28T04:13:33;16.90;99.90
17346;DHT22;8790;53.590;10.002;2023-07-28T04:16:06;17.00;99.90
17346;DHT22;8790;53.590;10.002;2023-07-28T04:18:38;17.00;99.90
17346;DHT22;8790;53.590;10.002;2023-07-28T04:21:09;17.00;99.90
17346;DHT22;8790;53.590;10.002;2023-07-28T04:23:41;17.00;99.90
17346;DHT22;8790;53.590;10.002;2023-07-28T04:26:14;17.00;99.90
17346;DHT22;8790;53.590;10.002;2023-07-28T04:28:46;17.00;99.90
17346;DHT22;8790;53.590;10.002;2023-07-28T04:31:19;16.90;99.90
17346;DHT22;8790;53.590;10.002;2023-07-28T04:33:57;16.90;99.90
17346;DHT22;8790;53.590;10.002;2023-07-28T04:36:37;16.90;99.90
17346;DHT22;8790;53.590;10.002;2023-07-28T04:39:09;16.90;99.90
17346;DHT22;8790;53.590;10.002;2023-07-28T04:41:41;16.80;99.90
17346;DHT22;8790;53.590;10.002;2023-07-28T04:44:13;16.90;99.90
17346;DHT22;8790;53.590;10.002;2023-07-28T04:46:49;16.90;99.90
17346;DHT22;8790;53.590;10.002;2023-07-28T04:49:21;16.90;99.90
17346;DHT22;8790;53.590;10.002;2023-07-28T04:52:11;16.90;99.90
17346;DHT22;8790;53.590;10.002;2023-07-28T04:55:01;16.90;99.90
17346;DHT22;8790;53.590;10.002;2023-07-28T04:57:34;16.90;99.90
17346;DHT22;8790;53.590;10.002;2023-07-28T05:00:07;16.90;99.90
17346;DHT22;8790;53.590;10.002;2023-07-28T05:02:40;16.80;99.90
17346;DHT22;8790;53.590;10.002;2023-07-28T05:05:12;16.90;99.90
17346;DHT22;8790;53.590;10.002;2023-07-28T05:07:43;16.90;99.90
17346;DHT22;8790;53.590;10.002;2023-07-28T05:10:19;16.90;99.90
17346;DHT22;8790;53.590;10.002;2023-07-28T05:12:50;16.90;99.90
17346;DHT22;8790;53.590;10.002;2023-07-28T05:15:22;16.90;99.90
17346;DHT22;8790;53.590;10.002;2023-07-28T05:17:55;16.90;99.90
17346;DHT22;8790;53.590;10.002;2023-07-28T05:20:39;16.90;99.90
17346;DHT22;8790;53.590;10.002;2023-07-28T05:23:18;16.90;99.90
17346;DHT22;8790;53.590;10.002;2023-07-28T05:25:50;16.90;99.90
17346;DHT22;8790;53.590;10.002;2023-07-28T05:28:22;16.90;99.90
17346;DHT22;8790;53.590;10.002;2023-07-28T05:31:03;16.90;99.90
17346;DHT22;8790;53.590;10.002;2023-07-28T05:33:39;16.90;99.90
17346;DHT22;8790;53.590;10.002;2023-07-28T05:36:11;16.90;99.90
17346;DHT22;8790;53.590;10.002;2023-07-28T05:38:43;16.90;99.90
17346;DHT22;8790;53.590;10.002;2023-07-28T05:41:15;16.90;99.90
17346;DHT22;8790;53.590;10.002;2023-07-28T05:43:49;16.90;99.90
17346;DHT22;8790;53.590;10.002;2023-07-28T05:46:21;17.00;99.90
17346;DHT22;8790;53.590;10.002;2023-07-28T05:48:55;17.00;99.90
17346;DHT22;8790;53.590;10.002;2023-07-28T05:51:27;17.00;99.90
17346;DHT22;8790;53.590;10.002;2023-07-28T05:54:00;17.00;99.90
17346;DHT22;8790;53.590;10.002;2023-07-28T05:56:32;17.00;99.90
17346;DHT22;8790;53.590;10.002;2023-07-28T05:59:04;17.00;99.90
17346;DHT22;8790;53.590;10.002;2023-07-28T06:01:36;17.00;99.90
17346;DHT22;8790;53.590;10.002;2023-07-28T06:04:27;17.00;99.90
17346;DHT22;8790;53.590;10.002;2023-07-28T06:07:02;17.00;99.90
17346;DHT22;8790;53.590;10.002;2023-07-28T06:09:34;17.00;99.90
17346;DHT22;8790;53.590;10.002;2023-07-28T06:12:06;17.00;99.90
17346;DHT22;8790;53.590;10.002;2023-07-28T06:14:38;17.00;99.90
17346;DHT22;8790;53.590;10.002;2023-07-28T06:17:12;17.00;99.90
17346;DHT22;8790;53.590;10.002;2023-07-28T06:19:45;17.00;99.90
17346;DHT22;8790;53.590;10.002;2023-07-28T06:22:17;17.00;99.90
17346;DHT22;8790;53.590;10.002;2023-07-28T06:24:50;17.10;99.90
17346;DHT22;8790;53.590;10.002;2023-07-28T06:27:21;17.10;99.90
17346;DHT22;8790;53.590;10.002;2023-07-28T06:29:53;17.20;99.90
17346;DHT22;8790;53.590;10.002;2023-07-28T06:32:25;17.20;99.90
17346;DHT22;8790;53.590;10.002;2023-07-28T06:34:59;17.20;99.90
17346;DHT22;8790;53.590;10.002;2023-07-28T06:37:31;17.20;99.90
17346;DHT22;8790;53.590;10.002;2023-07-28T06:40:04;17.20;99.90
17346;DHT22;8790;53.590;10.002;2023-07-28T06:42:36;17.20;99.90
17346;DHT22;8790;53.590;10.002;2023-07-28T06:45:08;17.20;99.90
17346;DHT22;8790;53.590;10.002;2023-07-28T06:47:41;17.20;99.90
17346;DHT22;8790;53.590;10.002;2023-07-28T06:50:15;17.20;99.90
17346;DHT22;8790;53.590;10.002;2023-07-28T06:52:47;17.20;99.90
17346;DHT22;8790;53.590;10.002;2023-07-28T06:55:25;17.20;99.90
17346;DHT22;8790;53.590;10.002;2023-07-28T06:57:57;17.20;99.90
17346;DHT22;8790;53.590;10.002;2023-07-28T07:00:29;17.20;99.90
17346;DHT22;8790;53.590;10.002;2023-07-28T07:03:02;17.30;99.90
17346;DHT22;8790;53.590;10.002;2023-07-28T07:05:35;17.30;99.90
17346;DHT22;8790;53.590;10.002;2023-07-28T07:08:07;17.40;99.90
17346;DHT22;8790;53.590;10.002;2023-07-28T07:10:39;17.50;99.90
17346;DHT22;8790;53.590;10.002;2023-07-28T07:13:11;17.40;99.90
17346;DHT22;8790;53.590;10.002;2023-07-28T07:15:44;17.40;99.90
17346;DHT22;8790;53.590;10.002;2023-07-28T07:18:15;17.40;99.90
17346;DHT22;8790;53.590;10.002;2023-07-28T07:20:48;17.40;99.90
17346;DHT22;8790;53.590;10.002;2023-07-28T07:23:20;17.40;99.90
17346;DHT22;8790;53.590;10.002;2023-07-28T07:25:52;17.40;99.90
17346;DHT22;8790;53.590;10.002;2023-07-28T07:28:24;17.40;99.90
17346;DHT22;8790;53.590;10.002;2023-07-28T07:30:56;17.40;99.90
17346;DHT22;8790;53.590;10.002;2023-07-28T07:33:27;17.50;99.90
17346;DHT22;8790;53.590;10.002;2023-07-28T07:36:00;17.50;99.90
17346;DHT22;8790;53.590;10.002;2023-07-28T07:38:32;17.50;99.90
17346;DHT22;8790;53.590;10.002;2023-07-28T07:41:04;17.50;99.90
17346;DHT22;8790;53.590;10.002;2023-07-28T07:43:35;17.60;99.90
17346;DHT22;8790;53.590;10.002;2023-07-28T07:46:07;17.60;99.90
17346;DHT22;8790;53.590;10.002;2023-07-28T07:48:39;17.60;99.90
17346;DHT22;8790;53.590;10.002;2023-07-28T07:51:13;17.60;99.90
17346;DHT22;8790;53.590;10.002;2023-07-28T07:53:44;17.60;99.90
17346;DHT22;8790;53.590;10.002;2023-07-28T07:56:16;17.60;99.90
17346;DHT22;8790;53.590;10.002;2023-07-28T07:58:48;17.60;99.90
17346;DHT22;8790;53.590;10.002;2023-07-28T08:01:20;17.60;99.90
17346;DHT22;8790;53.590;10.002;2023-07-28T08:03:52;17.60;99.90
17346;DHT22;8790;53.590;10.002;2023-07-28T08:06:25;17.70;99.90
17346;DHT22;8790;53.590;10.002;2023-07-28T08:08:57;17.80;99.90
17346;DHT22;8790;53.590;10.002;2023-07-28T08:11:30;17.80;99.90
17346;DHT22;8790;53.590;10.002;2023-07-28T08:14:01;17.80;99.90
17346;DHT22;8790;53.590;10.002;2023-07-28T08:16:33;17.80;99.90
17346;DHT22;8790;53.590;10.002;2023-07-28T08:19:05;17.80;99.90
17346;DHT22;8790;53.590;10.002;2023-07-28T08:21:38;17.80;99.90
17346;DHT22;8790;53.590;10.002;2023-07-28T08:24:10;17.80;99.90
17346;DHT22;8790;53.590;10.002;2023-07-28T08:26:42;17.90;99.90
17346;DHT22;8790;53.590;10.002;2023-07-28T08:29:14;17.80;99.90
17346;DHT22;8790;53.590;10.002;2023-07-28T08:31:46;17.80;99.90
17346;DHT22;8790;53.590;10.002;2023-07-28T08:34:18;17.80;99.90
17346;DHT22;8790;53.590;10.002;2023-07-28T08:36:51;17.80;99.90
17346;DHT22;8790;53.590;10.002;2023-07-28T08:39:23;17.80;99.90
17346;DHT22;8790;53.590;10.002;2023-07-28T08:41:58;17.80;99.90
17346;DHT22;8790;53.590;10.002;2023-07-28T08:44:32;17.90;99.90
17346;DHT22;8790;53.590;10.002;2023-07-28T08:47:04;17.80;99.90
17346;DHT22;8790;53.590;10.002;2023-07-28T08:49:36;17.90;99.90
17346;DHT22;8790;53.590;10.002;2023-07-28T08:52:09;17.90;99.90
17346;DHT22;8790;53.590;10.002;2023-07-28T08:54:41;17.90;99.90
17346;DHT22;8790;53.590;10.002;2023-07-28T08:57:13;17.90;99.90
17346;DHT22;8790;53.590;10.002;2023-07-28T08:59:45;17.90;99.90
17346;DHT22;8790;53.590;10.002;2023-07-28T09:02:19;18.00;99.90
17346;DHT22;8790;53.590;10.002;2023-07-28T09:04:52;18.00;99.90
17346;DHT22;8790;53.590;10.002;2023-07-28T09:07:25;18.00;99.90
17346;DHT22;8790;53.590;10.002;2023-07-28T09:09:59;18.00;99.90
17346;DHT22;8790;53.590;10.002;2023-07-28T09:12:32;18.10;99.90
17346;DHT22;8790;53.590;10.002;2023-07-28T09:15:06;18.10;99.90
17346;DHT22;8790;53.590;10.002;2023-07-28T09:17:42;18.10;99.90
17346;DHT22;8790;53.590;10.002;2023-07-28T09:20:14;18.20;99.90
17346;DHT22;8790;53.590;10.002;2023-07-28T09:22:50;18.20;99.90
17346;DHT22;8790;53.590;10.002;2023-07-28T09:25:23;18.10;99.90
17346;DHT22;8790;53.590;10.002;2023-07-28T09:27:55;18.20;99.90
17346;DHT22;8790;53.590;10.002;2023-07-28T09:30:44;18.20;99.90
17346;DHT22;8790;53.590;10.002;2023-07-28T09:33:29;18.10;99.90
17346;DHT22;8790;53.590;10.002;2023-07-28T09:36:09;18.10;99.90
17346;DHT22;8790;53.590;10.002;2023-07-28T09:38:42;18.00;99.90
17346;DHT22;8790;53.590;10.002;2023-07-28T09:41:14;18.10;99.90
17346;DHT22;8790;53.590;10.002;2023-07-28T09:43:46;18.10;99.90
17346;DHT22;8790;53.590;10.002;2023-07-28T09:46:20;18.10;99.90
17346;DHT22;8790;53.590;10.002;2023-07-28T09:48:56;18.10;99.90
17346;DHT22;8790;53.590;10.002;2023-07-28T09:51:30;18.20;99.90
17346;DHT22;8790;53.590;10.002;2023-07-28T09:54:06;18.30;99.90
17346;DHT22;8790;53.590;10.002;2023-07-28T09:56:40;18.30;99.90
17346;DHT22;8790;53.590;10.002;2023-07-28T09:59:17;18.40;99.90
17346;DHT22;8790;53.590;10.002;2023-07-28T10:01:49;18.40;99.90
17346;DHT22;8790;53.590;10.002;2023-07-28T10:04:21;18.30;99.90
17346;DHT22;8790;53.590;10.002;2023-07-28T10:06:53;18.30;99.90
17346;DHT22;8790;53.590;10.002;2023-07-28T10:09:29;18.30;99.90
17346;DHT22;8790;53.590;10.002;2023-07-28T10:12:01;18.30;99.90
17346;DHT22;8790;53.590;10.002;2023-07-28T10:14:36;18.50;99.90
17346;DHT22;8790;53.590;10.002;2023-07-28T10:17:15;18.50;99.90
17346;DHT22;8790;53.590;10.002;2023-07-28T10:19:47;18.60;99.90
17346;DHT22;8790;53.590;10.002;2023-07-28T10:22:18;18.60;99.90
17346;DHT22;8790;53.590;10.002;2023-07-28T10:24:52;18.70;99.90
17346;DHT22;8790;53.590;10.002;2023-07-28T10:30:04;18.70;99.90
17346;DHT22;8790;53.590;10.002;2023-07-28T10:32:38;18.70;99.90
17346;DHT22;8790;53.590;10.002;2023-07-28T10:35:23;18.60;99.90
17346;DHT22;8790;53.590;10.002;2023-07-28T10:37:54;18.60;99.90
17346;DHT22;8790;53.590;10.002;2023-07-28T10:40:29;18.60;99.90
17346;DHT22;8790;53.590;10.002;2023-07-28T10:43:03;18.60;99.90
17346;DHT22;8790;53.590;10.002;2023-07-28T10:45:35;18.70;99.90
17346;DHT22;8790;53.590;10.002;2023-07-28T10:48:07;18.80;99.90
17346;DHT22;8790;53.590;10.002;2023-07-28T10:50:39;18.80;99.90
17346;DHT22;8790;53.590;10.002;2023-07-28T10:53:12;18.80;99.90
17346;DHT22;8790;53.590;10.002;2023-07-28T10:55:45;18.90;99.90
17346;DHT22;8790;53.590;10.002;2023-07-28T10:58:17;18.90;99.90
17346;DHT22;8790;53.590;10.002;2023-07-28T11:00:50;18.90;99.90
17346;DHT22;8790;53.590;10.002;2023-07-28T11:03:23;18.90;99.90
17346;DHT22;8790;53.590;10.002;2023-07-28T11:05:55;18.90;99.90
17346;DHT22;8790;53.590;10.002;2023-07-28T11:08:27;18.90;99.90
17346;DHT22;8790;53.590;10.002;2023-07-28T11:11:03;19.00;99.90
17346;DHT22;8790;53.590;10.002;2023-07-28T11:13:35;19.00;99.90
17346;DHT22;8790;53.590;10.002;2023-07-28T11:16:07;19.10;99.90
17346;DHT22;8790;53.590;10.002;2023-07-28T11:18:41;19.10;99.90
17346;DHT22;8790;53.590;10.002;2023-07-28T11:21:12;19.10;99.90
17346;DHT22;8790;53.590;10.002;2023-07-28T11:23:48;19.20;99.90
17346;DHT22;8790;53.590;10.002;2023-07-28T11:26:23;19.10;99.90
17346;DHT22;8790;53.590;10.002;2023-07-28T11:28:55;19.10;99.90
17346;DHT22;8790;53.590;10.002;2023-07-28T11:31:26;19.20;99.90
17346;DHT22;8790;53.590;10.002;2023-07-28T11:33:58;19.30;99.90
17346;DHT22;8790;53.590;10.002;2023-07-28T11:36:30;19.30;99.90
17346;DHT22;8790;53.590;10.002;2023-07-28T11:39:02;19.40;99.90
17346;DHT22;8790;53.590;10.002;2023-07-28T11:41:37;19.40;99.90
17346;DHT22;8790;53.590;10.002;2023-07-28T11:44:10;19.40;99.90
17346;DHT22;8790;53.590;10.002;2023-07-28T11:46:42;19.50;99.90
17346;DHT22;8790;53.590;10.002;2023-07-28T11:49:16;19.40;99.90
17346;DHT22;8790;53.590;10.002;2023-07-28T11:51:50;19.50;99.90
17346;DHT22;8790;53.590;10.002;2023-07-28T11:54:24;19.50;99.90
17346;DHT22;8790;53.590;10.002;2023-07-28T11:56:57;19.50;99.90
17346;DHT22;8790;53.590;10.002;2023-07-28T11:59:29;19.50;99.90
17346;DHT22;8790;53.590;10.002;2023-07-28T12:02:03;19.50;99.90
17346;DHT22;8790;53.590;10.002;2023-07-28T12:04:37;19.60;99.90
17346;DHT22;8790;53.590;10.002;2023-07-28T12:07:11;19.60;99.90
17346;DHT22;8790;53.590;10.002;2023-07-28T12:09:50;19.70;99.90
17346;DHT22;8790;53.590;10.002;2023-07-28T12:12:25;19.70;99.90
17346;DHT22;8790;53.590;10.002;2023-07-28T12:14:58;19.70;99.90
17346;DHT22;8790;53.590;10.002;2023-07-28T12:17:34;19.80;99.90
17346;DHT22;8790;53.590;10.002;2023-07-28T12:20:08;19.80;99.90
17346;DHT22;8790;53.590;10.002;2023-07-28T12:22:42;19.80;99.90
17346;DHT22;8790;53.590;10.002;2023-07-28T12:25:14;19.80;99.90
17346;DHT22;8790;53.590;10.002;2023-07-28T12:27:47;19.80;99.90
17346;DHT22;8790;53.590;10.002;2023-07-28T12:30:19;19.80;99.90
17346;DHT22;8790;53.590;10.002;2023-07-28T12:32:51;19.80;99.90
17346;DHT22;8790;53.590;10.002;2023-07-28T12:35:24;19.80;99.90
17346;DHT22;8790;53.590;10.002;2023-07-28T12:37:59;19.80;99.90
17346;DHT22;8790;53.590;10.002;2023-07-28T12:40:32;19.90;99.90
17346;DHT22;8790;53.590;10.002;2023-07-28T12:43:06;19.90;99.90
17346;DHT22;8790;53.590;10.002;2023-07-28T12:45:37;19.90;99.90
17346;DHT22;8790;53.590;10.002;2023-07-28T12:48:09;20.00;99.90
17346;DHT22;8790;53.590;10.002;2023-07-28T12:50:41;20.00;99.90
17346;DHT22;8790;53.590;10.002;2023-07-28T12:53:13;20.10;99.90
17346;DHT22;8790;53.590;10.002;2023-07-28T12:55:44;20.10;99.90
17346;DHT22;8790;53.590;10.002;2023-07-28T12:58:17;20.10;99.90
17346;DHT22;8790;53.590;10.002;2023-07-28T13:00:49;20.10;99.90
17346;DHT22;8790;53.590;10.002;2023-07-28T13:03:22;20.10;99.90
17346;DHT22;8790;53.590;10.002;2023-07-28T13:05:54;20.10;99.90
17346;DHT22;8790;53.590;10.002;2023-07-28T13:08:26;20.10;99.90
17346;DHT22;8790;53.590;10.002;2023-07-28T13:10:58;20.10;99.90
17346;DHT22;8790;53.590;10.002;2023-07-28T13:13:31;20.10;99.90
17346;DHT22;8790;53.590;10.002;2023-07-28T13:16:03;20.10;99.90
17346;DHT22;8790;53.590;10.002;2023-07-28T13:18:36;20.00;99.90
17346;DHT22;8790;53.590;10.002;2023-07-28T13:21:10;20.10;99.90
17346;DHT22;8790;53.590;10.002;2023-07-28T13:23:42;20.10;99.90
17346;DHT22;8790;53.590;10.002;2023-07-28T13:26:13;20.20;99.90
17346;DHT22;8790;53.590;10.002;2023-07-28T13:28:46;20.20;99.90
17346;DHT22;8790;53.590;10.002;2023-07-28T13:31:18;20.10;99.90
17346;DHT22;8790;53.590;10.002;2023-07-28T13:33:50;20.10;99.90
17346;DHT22;8790;53.590;10.002;2023-07-28T13:36:22;20.10;99.90
17346;DHT22;8790;53.590;10.002;2023-07-28T13:38:54;20.10;99.90
17346;DHT22;8790;53.590;10.002;2023-07-28T13:41:25;20.20;99.90
17346;DHT22;8790;53.590;10.002;2023-07-28T13:43:59;20.20;99.90
17346;DHT22;8790;53.590;10.002;2023-07-28T13:46:30;20.30;99.90
17346;DHT22;8790;53.590;10.002;2023-07-28T13:49:02;20.40;99.90
17346;DHT22;8790;53.590;10.002;2023-07-28T13:51:34;20.40;99.90
17346;DHT22;8790;53.590;10.002;2023-07-28T13:54:05;20.40;99.90
17346;DHT22;8790;53.590;10.002;2023-07-28T13:56:37;20.40;99.90
17346;DHT22;8790;53.590;10.002;2023-07-28T13:59:10;20.50;99.90
17346;DHT22;8790;53.590;10.002;2023-07-28T14:01:42;20.50;99.90
17346;DHT22;8790;53.590;10.002;2023-07-28T14:04:14;20.60;99.90
17346;DHT22;8790;53.590;10.002;2023-07-28T14:06:45;20.70;99.90
17346;DHT22;8790;53.590;10.002;2023-07-28T14:09:17;20.70;99.90
17346;DHT22;8790;53.590;10.002;2023-07-28T14:11:49;20.70;99.90
17346;DHT22;8790;53.590;10.002;2023-07-28T14:14:22;20.60;99.90
17346;DHT22;8790;53.590;10.002;2023-07-28T14:16:54;20.70;99.90
17346;DHT22;8790;53.590;10.002;2023-07-28T14:19:25;20.70;99.90
17346;DHT22;8790;53.590;10.002;2023-07-28T14:21:57;20.70;99.90
17346;DHT22;8790;53.590;10.002;2023-07-28T14:24:29;20.70;99.90
17346;DHT22;8790;53.590;10.002;2023-07-28T14:27:01;20.70;99.90
17346;DHT22;8790;53.590;10.002;2023-07-28T14:29:34;20.70;99.90
17346;DHT22;8790;53.590;10.002;2023-07-28T14:32:06;20.70;99.90
17346;DHT22;8790;53.590;10.002;2023-07-28T14:34:38;20.70;99.90
17346;DHT22;8790;53.590;10.002;2023-07-28T14:37:10;20.70;99.90
17346;DHT22;8790;53.590;10.002;2023-07-28T14:39:42;20.80;99.90
17346;DHT22;8790;53.590;10.002;2023-07-28T14:42:13;20.80;99.90
17346;DHT22;8790;53.590;10.002;2023-07-28T14:44:46;20.80;99.90
17346;DHT22;8790;53.590;10.002;2023-07-28T14:47:18;20.90;99.90
17346;DHT22;8790;53.590;10.002;2023-07-28T14:49:50;21.00;99.90
17346;DHT22;8790;53.590;10.002;2023-07-28T14:52:21;21.30;99.90
17346;DHT22;8790;53.590;10.002;2023-07-28T14:54:53;21.50;99.90
17346;DHT22;8790;53.590;10.002;2023-07-28T14:57:25;21.60;99.90
17346;DHT22;8790;53.590;10.002;2023-07-28T14:59:58;21.40;99.90
17346;DHT22;8790;53.590;10.002;2023-07-28T15:02:30;21.40;99.90
17346;DHT22;8790;53.590;10.002;2023-07-28T15:05:01;21.40;99.90
17346;DHT22;8790;53.590;10.002;2023-07-28T15:07:33;21.40;99.90
17346;DHT22;8790;53.590;10.002;2023-07-28T15:10:06;21.40;99.90
17346;DHT22;8790;53.590;10.002;2023-07-28T15:12:38;21.40;99.90
17346;DHT22;8790;53.590;10.002;2023-07-28T15:15:12;21.30;99.90
17346;DHT22;8790;53.590;10.002;2023-07-28T15:17:44;21.40;99.90
17346;DHT22;8790;53.590;10.002;2023-07-28T15:20:15;21.40;99.90
17346;DHT22;8790;53.590;10.002;2023-07-28T15:22:50;21.40;99.90
17346;DHT22;8790;53.590;10.002;2023-07-28T15:25:22;21.30;99.90
17346;DHT22;8790;53.590;10.002;2023-07-28T15:27:53;21.40;99.90
17346;DHT22;8790;53.590;10.002;2023-07-28T15:30:27;21.50;99.90
17346;DHT22;8790;53.590;10.002;2023-07-28T15:33:00;21.50;99.90
17346;DHT22;8790;53.590;10.002;2023-07-28T15:35:32;21.50;99.90
17346;DHT22;8790;53.590;10.002;2023-07-28T15:38:03;21.60;99.90
17346;DHT22;8790;53.590;10.002;2023-07-28T15:40:35;21.50;99.90
17346;DHT22;8790;53.590;10.002;2023-07-28T15:43:07;21.50;99.90
17346;DHT22;8790;53.590;10.002;2023-07-28T15:45:40;21.60;99.90
17346;DHT22;8790;53.590;10.002;2023-07-28T15:48:12;21.50;99.90
17346;DHT22;8790;53.590;10.002;2023-07-28T15:50:43;21.60;99.90
17346;DHT22;8790;53.590;10.002;2023-07-28T15:53:15;21.60;99.90
17346;DHT22;8790;53.590;10.002;2023-07-28T15:55:47;21.60;99.90
17346;DHT22;8790;53.590;10.002;2023-07-28T15:58:18;21.60;99.90
17346;DHT22;8790;53.590;10.002;2023-07-28T16:00:51;21.70;99.90
17346;DHT22;8790;53.590;10.002;2023-07-28T16:03:23;21.50;99.90
17346;DHT22;8790;53.590;10.002;2023-07-28T16:05:55;21.50;99.90
17346;DHT22;8790;53.590;10.002;2023-07-28T16:08:27;21.50;99.90